sensor_id;sensor_type;location;lat;lon;timestamp;pressure;altitude;pressure_sealevel;temperature;humidity
51297;BME280;37380;45.186;9.792;2023-04-02T00:06:31;99987.44;;;9.70;88.94
51297;BME280;37380;45.186;9.792;2023-04-02T00:09:28;99967.91;;;9.55;89.02
51297;BME280;37380;45.186;9.792;2023-04-02T00:11:55;100000.28;;;9.63;90.10
51297;BME280;37380;45.186;9.792;2023-04-02T00:14:30;99997.66;;;9.63;84.58
51297;BME280;37380;45.186;9.792;2023-04-02T00:17:00;99969.88;;;9.63;82.30
51297;BME280;37380;45.186;9.792;2023-04-02T00:22:20;99988.47;;;9.77;81.30
51297;BME280;37380;45.186;9.792;2023-04-02T00:24:52;99999.06;;;9.82;79.89
51297;BME280;37380;45.186;9.792;2023-04-02T00:27:20;99981.91;;;9.91;79.40
51297;BME280;37380;45.186;9.792;2023-04-02T00:29:56;99996.75;;;9.94;78.55
51297;BME280;37380;45.186;9.792;2023-04-02T00:32:30;99994.84;;;9.87;78.66
51297;BME280;37380;45.186;9.792;2023-04-02T00:34:58;99998.34;;;9.89;78.44
51297;BME280;37380;45.186;9.792;2023-04-02T00:37:32;99976.69;;;9.58;79.06
51297;BME280;37380;45.186;9.792;2023-04-02T00:40:29;99937.97;;;9.40;78.82
51297;BME280;37380;45.186;9.792;2023-04-02T00:42:58;99928.09;;;9.28;79.58
51297;BME280;37380;45.186;9.792;2023-04-02T00:45:30;99999.69;;;9.41;81.26
51297;BME280;37380;45.186;9.792;2023-04-02T00:48:13;99992.06;;;9.17;83.79
51297;BME280;37380;45.186;9.792;2023-04-02T00:50:43;99990.94;;;9.07;84.43
51297;BME280;37380;45.186;9.792;2023-04-02T00:53:24;99977.94;;;9.09;83.12
51297;BME280;37380;45.186;9.792;2023-04-02T00:56:26;99919.44;;;8.69;83.64
51297;BME280;37380;45.186;9.792;2023-04-02T00:58:54;100015.22;;;9.37;83.38
51297;BME280;37380;45.186;9.792;2023-04-02T01:01:28;100017.72;;;9.34;83.50
51297;BME280;37380;45.186;9.792;2023-04-02T01:04:01;99939.56;;;8.73;85.85
51297;BME280;37380;45.186;9.792;2023-04-02T01:06:36;100010.31;;;9.17;87.09
51297;BME280;37380;45.186;9.792;2023-04-02T01:09:20;100017.72;;;9.34;85.23
51297;BME280;37380;45.186;9.792;2023-04-02T01:21:02;99955.00;;;8.97;84.48
51297;BME280;37380;45.186;9.792;2023-04-02T01:24:09;100036.38;;;9.17;85.70
51297;BME280;37380;45.186;9.792;2023-04-02T01:29:45;99967.72;;;8.87;86.02
51297;BME280;37380;45.186;9.792;2023-04-02T01:32:18;100020.13;;;9.26;85.64
51297;BME280;37380;45.186;9.792;2023-04-02T01:34:48;100045.13;;;9.19;90.75
51297;BME280;37380;45.186;9.792;2023-04-02T01:37:38;100038.03;;;9.15;92.12
51297;BME280;37380;45.186;9.792;2023-04-02T01:40:31;100039.00;;;9.19;95.29
51297;BME280;37380;45.186;9.792;2023-04-02T01:43:31;100042.81;;;9.30;100.00
51297;BME280;37380;45.186;9.792;2023-04-02T01:46:23;100035.22;;;9.38;100.00
51297;BME280;37380;45.186;9.792;2023-04-02T01:48:53;100050.97;;;9.41;100.00
51297;BME280;37380;45.186;9.792;2023-04-02T01:51:31;100036.09;;;9.38;100.00
51297;BME280;37380;45.186;9.792;2023-04-02T01:54:08;100047.47;;;9.40;100.00
51297;BME280;37380;45.186;9.792;2023-04-02T01:56:55;100059.19;;;9.55;100.00
51297;BME280;37380;45.186;9.792;2023-04-02T01:59:23;100008.81;;;9.25;100.00
51297;BME280;37380;45.186;9.792;2023-04-02T02:02:02;100061.00;;;9.57;100.00
51297;BME280;37380;45.186;9.792;2023-04-02T02:04:32;100024.81;;;9.38;100.00
51297;BME280;37380;45.186;9.792;2023-04-02T02:07:00;100031.06;;;9.44;100.00
51297;BME280;37380;45.186;9.792;2023-04-02T02:09:33;100019.34;;;9.28;100.00
51297;BME280;37380;45.186;9.792;2023-04-02T02:12:04;100025.16;;;9.20;100.00
51297;BME280;37380;45.186;9.792;2023-04-02T02:14:31;100080.75;;;9.49;100.00
51297;BME280;37380;45.186;9.792;2023-04-02T02:17:00;100083.56;;;9.57;100.00
51297;BME280;37380;45.186;9.792;2023-04-02T02:19:37;100042.81;;;9.30;100.00
51297;BME280;37380;45.186;9.792;2023-04-02T02:24:37;100016.66;;;8.97;100.00
51297;BME280;37380;45.186;9.792;2023-04-02T02:32:56;100097.81;;;9.38;100.00
51297;BME280;37380;45.186;9.792;2023-04-02T02:35:33;100060.56;;;9.13;100.00
51297;BME280;37380;45.186;9.792;2023-04-02T02:41:32;99995.06;;;8.72;100.00
51297;BME280;37380;45.186;9.792;2023-04-02T02:46:47;100100.44;;;9.39;100.00
51297;BME280;37380;45.186;9.792;2023-04-02T02:49:21;100091.88;;;9.43;100.00
51297;BME280;37380;45.186;9.792;2023-04-02T02:52:05;100112.03;;;9.49;100.00
51297;BME280;37380;45.186;9.792;2023-04-02T02:54:55;100103.91;;;9.38;100.00
51297;BME280;37380;45.186;9.792;2023-04-02T02:58:31;100125.19;;;9.52;100.00
51297;BME280;37380;45.186;9.792;2023-04-02T03:01:37;100094.16;;;9.33;100.00
51297;BME280;37380;45.186;9.792;2023-04-02T03:04:32;100134.66;;;9.50;100.00
51297;BME280;37380;45.186;9.792;2023-04-02T03:07:07;100067.59;;;9.16;100.00
51297;BME280;37380;45.186;9.792;2023-04-02T03:09:58;100140.31;;;9.65;100.00
51297;BME280;37380;45.186;9.792;2023-04-02T03:12:44;100139.59;;;9.69;100.00
51297;BME280;37380;45.186;9.792;2023-04-02T03:15:21;100143.09;;;9.71;100.00
51297;BME280;37380;45.186;9.792;2023-04-02T03:21:05;100084.19;;;9.48;100.00
51297;BME280;37380;45.186;9.792;2023-04-02T03:23:41;100154.91;;;9.89;100.00
51297;BME280;37380;45.186;9.792;2023-04-02T03:29:02;100108.16;;;9.36;100.00
51297;BME280;37380;45.186;9.792;2023-04-02T03:31:37;100054.09;;;9.00;100.00
51297;BME280;37380;45.186;9.792;2023-04-02T03:34:37;100154.41;;;10.01;100.00
51297;BME280;37380;45.186;9.792;2023-04-02T03:39:45;100160.75;;;9.80;100.00
51297;BME280;37380;45.186;9.792;2023-04-02T03:42:41;100124.50;;;9.59;100.00
51297;BME280;37380;45.186;9.792;2023-04-02T03:45:23;100146.47;;;9.37;100.00
51297;BME280;37380;45.186;9.792;2023-04-02T03:48:02;100179.00;;;9.50;100.00
51297;BME280;37380;45.186;9.792;2023-04-02T03:50:55;100107.38;;;9.39;100.00
51297;BME280;37380;45.186;9.792;2023-04-02T03:53:31;100168.47;;;9.75;100.00
51297;BME280;37380;45.186;9.792;2023-04-02T03:56:35;100149.59;;;9.54;100.00
51297;BME280;37380;45.186;9.792;2023-04-02T03:59:44;100190.47;;;9.55;100.00
51297;BME280;37380;45.186;9.792;2023-04-02T04:04:54;100181.66;;;9.51;100.00
51297;BME280;37380;45.186;9.792;2023-04-02T04:07:39;100183.66;;;9.60;100.00
51297;BME280;37380;45.186;9.792;2023-04-02T04:10:08;100157.59;;;9.60;100.00
51297;BME280;37380;45.186;9.792;2023-04-02T04:12:46;100170.41;;;9.83;100.00
51297;BME280;37380;45.186;9.792;2023-04-02T04:15:35;100133.94;;;9.25;100.00
51297;BME280;37380;45.186;9.792;2023-04-02T04:21:29;100146.03;;;9.23;100.00
51297;BME280;37380;45.186;9.792;2023-04-02T04:24:16;100220.31;;;9.65;100.00
51297;BME280;37380;45.186;9.792;2023-04-02T04:26:55;100221.28;;;9.68;100.00
51297;BME280;37380;45.186;9.792;2023-04-02T04:29:34;100221.28;;;9.68;100.00
51297;BME280;37380;45.186;9.792;2023-04-02T04:32:20;100229.69;;;9.87;100.00
51297;BME280;37380;45.186;9.792;2023-04-02T04:35:03;100224.63;;;9.93;100.00
51297;BME280;37380;45.186;9.792;2023-04-02T04:37:35;100188.78;;;9.57;100.00
51297;BME280;37380;45.186;9.792;2023-04-02T04:40:21;100236.94;;;9.97;100.00
51297;BME280;37380;45.186;9.792;2023-04-02T04:42:57;100239.63;;;10.00;100.00
51297;BME280;37380;45.186;9.792;2023-04-02T04:45:49;100200.22;;;9.91;100.00
51297;BME280;37380;45.186;9.792;2023-04-02T04:51:17;100171.31;;;9.55;100.00
51297;BME280;37380;45.186;9.792;2023-04-02T04:53:53;100259.69;;;10.01;100.00
51297;BME280;37380;45.186;9.792;2023-04-02T04:56:55;100174.09;;;9.32;100.00
51297;BME280;37380;45.186;9.792;2023-04-02T04:59:31;100277.25;;;9.78;100.00
51297;BME280;37380;45.186;9.792;2023-04-02T05:02:11;100270.94;;;9.71;100.00
51297;BME280;37380;45.186;9.792;2023-04-02T05:05:26;100210.00;;;9.41;100.00
51297;BME280;37380;45.186;9.792;2023-04-02T05:08:25;100281.72;;;9.82;100.00
51297;BME280;37380;45.186;9.792;2023-04-02T05:11:07;100269.88;;;9.38;100.00
51297;BME280;37380;45.186;9.792;2023-04-02T05:13:48;100273.53;;;9.43;100.00
51297;BME280;37380;45.186;9.792;2023-04-02T05:16:30;100267.31;;;9.12;100.00
51297;BME280;37380;45.186;9.792;2023-04-02T05:19:11;100303.81;;;9.39;100.00
51297;BME280;37380;45.186;9.792;2023-04-02T05:21:43;100216.72;;;8.80;100.00
51297;BME280;37380;45.186;9.792;2023-04-02T05:24:43;100320.50;;;9.44;100.00
51297;BME280;37380;45.186;9.792;2023-04-02T05:29:46;100326.56;;;9.43;100.00
51297;BME280;37380;45.186;9.792;2023-04-02T05:32:23;100330.22;;;9.48;100.00
51297;BME280;37380;45.186;9.792;2023-04-02T05:34:55;100324.63;;;9.38;100.00
51297;BME280;37380;45.186;9.792;2023-04-02T05:37:25;100322.41;;;9.23;100.00
51297;BME280;37380;45.186;9.792;2023-04-02T05:39:57;100327.34;;;9.41;100.00
51297;BME280;37380;45.186;9.792;2023-04-02T05:42:31;100334.53;;;9.48;100.00
51297;BME280;37380;45.186;9.792;2023-04-02T05:47:40;100340.50;;;9.44;100.00
51297;BME280;37380;45.186;9.792;2023-04-02T05:52:57;100343.09;;;9.44;100.00
51297;BME280;37380;45.186;9.792;2023-04-02T05:55:40;100318.97;;;9.24;100.00
51297;BME280;37380;45.186;9.792;2023-04-02T05:58:51;100361.53;;;9.75;100.00
51297;BME280;37380;45.186;9.792;2023-04-02T06:04:45;100349.19;;;9.71;100.00
51297;BME280;37380;45.186;9.792;2023-04-02T06:07:28;100274.28;;;9.13;100.00
51297;BME280;37380;45.186;9.792;2023-04-02T06:10:04;100352.16;;;9.55;100.00
51297;BME280;37380;45.186;9.792;2023-04-02T06:12:56;100351.81;;;9.71;100.00
51297;BME280;37380;45.186;9.792;2023-04-02T06:15:34;100360.97;;;9.86;100.00
51297;BME280;37380;45.186;9.792;2023-04-02T06:18:14;100301.44;;;9.74;100.00
51297;BME280;37380;45.186;9.792;2023-04-02T06:20:43;100275.88;;;9.62;100.00
51297;BME280;37380;45.186;9.792;2023-04-02T06:23:12;100381.75;;;10.37;100.00
51297;BME280;37380;45.186;9.792;2023-04-02T06:25:46;100363.34;;;9.78;100.00
51297;BME280;37380;45.186;9.792;2023-04-02T06:28:18;100363.97;;;9.71;100.00
51297;BME280;37380;45.186;9.792;2023-04-02T06:30:57;100385.56;;;9.92;100.00
51297;BME280;37380;45.186;9.792;2023-04-02T06:33:27;100367.50;;;10.00;100.00
51297;BME280;37380;45.186;9.792;2023-04-02T06:35:55;100390.38;;;10.64;100.00
51297;BME280;37380;45.186;9.792;2023-04-02T06:38:29;100396.44;;;10.94;100.00
51297;BME280;37380;45.186;9.792;2023-04-02T06:41:00;100394.44;;;11.15;100.00
51297;BME280;37380;45.186;9.792;2023-04-02T06:43:41;100387.63;;;10.90;100.00
51297;BME280;37380;45.186;9.792;2023-04-02T06:46:28;100363.16;;;10.86;100.00
51297;BME280;37380;45.186;9.792;2023-04-02T06:49:14;100375.59;;;10.95;100.00
51297;BME280;37380;45.186;9.792;2023-04-02T06:51:45;100385.66;;;11.13;100.00
51297;BME280;37380;45.186;9.792;2023-04-02T06:54:21;100331.09;;;10.94;100.00
51297;BME280;37380;45.186;9.792;2023-04-02T06:57:23;100375.81;;;11.36;100.00
51297;BME280;37380;45.186;9.792;2023-04-02T07:00:31;100381.44;;;11.51;100.00
51297;BME280;37380;45.186;9.792;2023-04-02T07:03:04;100404.41;;;11.63;100.00
51297;BME280;37380;45.186;9.792;2023-04-02T07:05:33;100405.91;;;11.53;100.00
51297;BME280;37380;45.186;9.792;2023-04-02T07:08:00;100422.63;;;9.82;100.00
51297;BME280;37380;45.186;9.792;2023-04-02T07:10:27;100369.38;;;8.99;100.00
51297;BME280;37380;45.186;9.792;2023-04-02T07:12:55;100434.16;;;8.90;100.00
51297;BME280;37380;45.186;9.792;2023-04-02T07:15:23;100343.34;;;9.00;100.00
51297;BME280;37380;45.186;9.792;2023-04-02T07:17:52;100396.38;;;10.05;100.00
51297;BME280;37380;45.186;9.792;2023-04-02T07:20:29;100408.28;;;10.81;100.00
51297;BME280;37380;45.186;9.792;2023-04-02T07:23:01;100349.84;;;10.77;100.00
51297;BME280;37380;45.186;9.792;2023-04-02T07:25:28;100402.84;;;11.35;100.00
51297;BME280;37380;45.186;9.792;2023-04-02T07:28:03;100415.50;;;11.53;100.00
51297;BME280;37380;45.186;9.792;2023-04-02T07:30:57;100404.75;;;11.75;100.00
51297;BME280;37380;45.186;9.792;2023-04-02T07:33:27;100341.75;;;11.33;100.00
51297;BME280;37380;45.186;9.792;2023-04-02T07:35:56;100450.59;;;12.29;100.00
51297;BME280;37380;45.186;9.792;2023-04-02T07:38:24;100431.84;;;11.13;100.00
51297;BME280;37380;45.186;9.792;2023-04-02T07:40:51;100408.38;;;10.84;100.00
51297;BME280;37380;45.186;9.792;2023-04-02T07:43:18;100402.63;;;10.65;100.00
51297;BME280;37380;45.186;9.792;2023-04-02T07:45:45;100445.91;;;10.29;100.00
51297;BME280;37380;45.186;9.792;2023-04-02T07:48:12;100507.25;;;10.69;100.00
51297;BME280;37380;45.186;9.792;2023-04-02T07:50:40;100458.16;;;10.31;100.00
51297;BME280;37380;45.186;9.792;2023-04-02T07:53:25;100508.19;;;11.29;100.00
51297;BME280;37380;45.186;9.792;2023-04-02T07:56:22;100510.22;;;11.09;100.00
51297;BME280;37380;45.186;9.792;2023-04-02T07:58:49;100415.50;;;10.88;100.00
51297;BME280;37380;45.186;9.792;2023-04-02T08:01:22;100499.28;;;12.21;100.00
51297;BME280;37380;45.186;9.792;2023-04-02T08:03:51;100417.94;;;12.53;100.00
51297;BME280;37380;45.186;9.792;2023-04-02T08:06:20;100469.59;;;13.39;100.00
51297;BME280;37380;45.186;9.792;2023-04-02T08:08:48;100402.66;;;13.17;100.00
51297;BME280;37380;45.186;9.792;2023-04-02T08:11:15;100474.09;;;13.03;100.00
51297;BME280;37380;45.186;9.792;2023-04-02T08:13:43;100483.28;;;13.69;100.00
51297;BME280;37380;45.186;9.792;2023-04-02T08:16:10;100427.81;;;13.07;100.00
51297;BME280;37380;45.186;9.792;2023-04-02T08:18:37;100455.59;;;13.38;100.00
51297;BME280;37380;45.186;9.792;2023-04-02T08:21:06;100516.09;;;14.43;100.00
51297;BME280;37380;45.186;9.792;2023-04-02T08:23:35;100457.84;;;14.17;100.00
51297;BME280;37380;45.186;9.792;2023-04-02T08:26:04;100539.28;;;14.68;100.00
51297;BME280;37380;45.186;9.792;2023-04-02T08:28:31;100407.88;;;13.15;100.00
51297;BME280;37380;45.186;9.792;2023-04-02T08:30:58;100527.72;;;13.58;100.00
51297;BME280;37380;45.186;9.792;2023-04-02T08:33:26;100520.97;;;13.27;100.00
51297;BME280;37380;45.186;9.792;2023-04-02T08:35:53;100504.09;;;14.07;100.00
51297;BME280;37380;45.186;9.792;2023-04-02T08:38:20;100527.88;;;14.68;100.00
51297;BME280;37380;45.186;9.792;2023-04-02T08:40:50;100468.63;;;14.94;100.00
51297;BME280;37380;45.186;9.792;2023-04-02T08:48:34;100501.09;;;16.64;95.47
51297;BME280;37380;45.186;9.792;2023-04-02T08:51:03;100531.34;;;17.28;88.81
51297;BME280;37380;45.186;9.792;2023-04-02T08:53:39;100524.41;;;17.47;91.75
51297;BME280;37380;45.186;9.792;2023-04-02T08:56:48;100552.56;;;17.48;86.05
51297;BME280;37380;45.186;9.792;2023-04-02T08:59:44;100510.88;;;15.74;91.54
51297;BME280;37380;45.186;9.792;2023-04-02T09:04:38;100549.88;;;16.13;95.69
51297;BME280;37380;45.186;9.792;2023-04-02T09:07:12;100577.66;;;16.73;97.37
51297;BME280;37380;45.186;9.792;2023-04-02T09:09:40;100490.06;;;17.37;91.44
51297;BME280;37380;45.186;9.792;2023-04-02T09:12:25;100577.22;;;17.48;92.81
51297;BME280;37380;45.186;9.792;2023-04-02T09:17:21;100584.94;;;16.04;94.94
51297;BME280;37380;45.186;9.792;2023-04-02T09:20:00;100533.31;;;15.46;99.97
51297;BME280;37380;45.186;9.792;2023-04-02T09:22:32;100597.53;;;15.57;100.00
51297;BME280;37380;45.186;9.792;2023-04-02T09:25:03;100583.19;;;16.03;100.00
51297;BME280;37380;45.186;9.792;2023-04-02T09:27:38;100594.28;;;16.63;95.80
51297;BME280;37380;45.186;9.792;2023-04-02T09:30:43;100581.19;;;16.75;93.46
51297;BME280;37380;45.186;9.792;2023-04-02T09:33:16;100613.81;;;16.82;93.55
51297;BME280;37380;45.186;9.792;2023-04-02T09:38:26;100605.59;;;16.51;96.08
51297;BME280;37380;45.186;9.792;2023-04-02T09:40:58;100609.53;;;17.00;95.82
51297;BME280;37380;45.186;9.792;2023-04-02T09:43:26;100610.59;;;17.29;97.81
51297;BME280;37380;45.186;9.792;2023-04-02T09:49:11;100607.47;;;16.65;100.00
51297;BME280;37380;45.186;9.792;2023-04-02T09:51:41;100609.78;;;17.38;95.04
51297;BME280;37380;45.186;9.792;2023-04-02T09:54:15;100605.63;;;17.87;88.45
51297;BME280;37380;45.186;9.792;2023-04-02T09:57:21;100608.34;;;18.38;84.36
51297;BME280;37380;45.186;9.792;2023-04-02T10:02:44;100604.31;;;17.10;89.14
51297;BME280;37380;45.186;9.792;2023-04-02T10:05:20;100619.31;;;17.19;87.50
51297;BME280;37380;45.186;9.792;2023-04-02T10:08:07;100614.97;;;17.23;91.13
51297;BME280;37380;45.186;9.792;2023-04-02T10:10:39;100611.00;;;18.24;88.21
51297;BME280;37380;45.186;9.792;2023-04-02T10:13:19;100606.56;;;18.09;87.46
51297;BME280;37380;45.186;9.792;2023-04-02T10:15:50;100615.44;;;18.33;82.72
51297;BME280;37380;45.186;9.792;2023-04-02T10:21:11;100586.34;;;18.53;82.35
51297;BME280;37380;45.186;9.792;2023-04-02T10:23:39;100585.47;;;18.57;82.21
51297;BME280;37380;45.186;9.792;2023-04-02T10:29:08;100614.28;;;17.59;91.32
51297;BME280;37380;45.186;9.792;2023-04-02T10:34:23;100589.91;;;16.68;91.04
51297;BME280;37380;45.186;9.792;2023-04-02T10:36:55;100607.97;;;17.32;86.89
51297;BME280;37380;45.186;9.792;2023-04-02T10:39:37;100559.25;;;16.81;87.30
51297;BME280;37380;45.186;9.792;2023-04-02T10:52:38;100603.34;;;16.94;84.00
51297;BME280;37380;45.186;9.792;2023-04-02T10:55:17;100611.78;;;17.91;80.91
51297;BME280;37380;45.186;9.792;2023-04-02T10:58:29;100585.28;;;17.73;81.94
51297;BME280;37380;45.186;9.792;2023-04-02T11:01:27;100600.44;;;18.24;84.06
51297;BME280;37380;45.186;9.792;2023-04-02T11:04:05;100531.66;;;18.10;80.60
51297;BME280;37380;45.186;9.792;2023-04-02T11:07:02;100588.09;;;18.55;80.86
51297;BME280;37380;45.186;9.792;2023-04-02T11:09:42;100594.28;;;18.56;80.42
51297;BME280;37380;45.186;9.792;2023-04-02T11:12:41;100562.31;;;17.56;81.14
51297;BME280;37380;45.186;9.792;2023-04-02T11:15:15;100594.28;;;18.61;75.79
51297;BME280;37380;45.186;9.792;2023-04-02T11:17:44;100584.56;;;19.07;71.39
51297;BME280;37380;45.186;9.792;2023-04-02T11:23:16;100572.22;;;18.54;78.27
51297;BME280;37380;45.186;9.792;2023-04-02T11:25:45;100589.88;;;18.95;75.56
51297;BME280;37380;45.186;9.792;2023-04-02T11:30:47;100538.69;;;18.73;77.92
51297;BME280;37380;45.186;9.792;2023-04-02T11:39:49;100546.66;;;18.27;67.38
51297;BME280;37380;45.186;9.792;2023-04-02T11:42:44;100522.72;;;17.73;69.19
51297;BME280;37380;45.186;9.792;2023-04-02T11:48:36;100558.03;;;17.81;66.71
51297;BME280;37380;45.186;9.792;2023-04-02T11:54:21;100574.84;;;18.25;65.09
51297;BME280;37380;45.186;9.792;2023-04-02T11:57:21;100557.09;;;17.76;71.75
51297;BME280;37380;45.186;9.792;2023-04-02T12:00:23;100563.44;;;18.76;66.95
51297;BME280;37380;45.186;9.792;2023-04-02T12:03:11;100564.28;;;18.92;64.01
51297;BME280;37380;45.186;9.792;2023-04-02T12:05:51;100559.00;;;18.31;63.57
51297;BME280;37380;45.186;9.792;2023-04-02T12:11:01;100559.81;;;17.95;61.98
51297;BME280;37380;45.186;9.792;2023-04-02T12:16:09;100566.69;;;17.50;63.65
51297;BME280;37380;45.186;9.792;2023-04-02T12:18:49;100567.53;;;17.39;62.55
51297;BME280;37380;45.186;9.792;2023-04-02T12:21:25;100498.78;;;17.27;64.02
51297;BME280;37380;45.186;9.792;2023-04-02T12:23:55;100555.31;;;17.69;65.43
51297;BME280;37380;45.186;9.792;2023-04-02T12:28:53;100487.19;;;16.88;67.10
51297;BME280;37380;45.186;9.792;2023-04-02T12:31:23;100556.16;;;17.57;66.04
51297;BME280;37380;45.186;9.792;2023-04-02T12:33:51;100512.03;;;17.36;67.38
51297;BME280;37380;45.186;9.792;2023-04-02T12:36:20;100558.66;;;17.30;65.33
51297;BME280;37380;45.186;9.792;2023-04-02T12:38:49;100549.84;;;17.26;66.65
51297;BME280;37380;45.186;9.792;2023-04-02T12:41:29;100541.94;;;17.26;64.67
51297;BME280;37380;45.186;9.792;2023-04-02T12:44:04;100546.38;;;17.38;66.22
51297;BME280;37380;45.186;9.792;2023-04-02T12:46:37;100461.47;;;16.57;67.66
51297;BME280;37380;45.186;9.792;2023-04-02T12:49:05;100545.50;;;17.34;66.17
51297;BME280;37380;45.186;9.792;2023-04-02T12:51:36;100455.28;;;16.55;64.55
51297;BME280;37380;45.186;9.792;2023-04-02T12:54:15;100533.03;;;17.06;67.55
51297;BME280;37380;45.186;9.792;2023-04-02T13:02:50;100553.28;;;17.05;65.25
51297;BME280;37380;45.186;9.792;2023-04-02T13:05:38;100485.41;;;16.83;65.39
51297;BME280;37380;45.186;9.792;2023-04-02T13:08:22;100495.91;;;16.77;66.67
51297;BME280;37380;45.186;9.792;2023-04-02T13:10:54;100533.06;;;17.12;64.34
51297;BME280;37380;45.186;9.792;2023-04-02T13:13:25;100533.06;;;17.15;66.37
51297;BME280;37380;45.186;9.792;2023-04-02T13:16:24;100541.06;;;17.26;65.34
51297;BME280;37380;45.186;9.792;2023-04-02T13:19:08;100541.13;;;17.42;64.70
51297;BME280;37380;45.186;9.792;2023-04-02T13:21:35;100466.97;;;16.87;64.44
51297;BME280;37380;45.186;9.792;2023-04-02T13:24:03;100519.91;;;17.23;64.21
51297;BME280;37380;45.186;9.792;2023-04-02T13:26:30;100513.81;;;17.31;66.20
51297;BME280;37380;45.186;9.792;2023-04-02T13:31:36;100459.06;;;16.93;63.20
51297;BME280;37380;45.186;9.792;2023-04-02T13:34:03;100500.50;;;17.08;65.96
51297;BME280;37380;45.186;9.792;2023-04-02T13:36:30;100548.94;;;17.24;63.14
51297;BME280;37380;45.186;9.792;2023-04-02T13:38:57;100437.94;;;16.84;62.70
51297;BME280;37380;45.186;9.792;2023-04-02T13:41:30;100487.28;;;17.08;63.80
51297;BME280;37380;45.186;9.792;2023-04-02T13:43:59;100536.81;;;17.63;65.79
51297;BME280;37380;45.186;9.792;2023-04-02T13:46:34;100527.09;;;17.65;62.34
51297;BME280;37380;45.186;9.792;2023-04-02T13:49:29;100532.38;;;17.56;60.56
51297;BME280;37380;45.186;9.792;2023-04-02T13:52:01;100548.25;;;17.65;62.85
51297;BME280;37380;45.186;9.792;2023-04-02T13:54:43;100528.97;;;17.94;61.10
51297;BME280;37380;45.186;9.792;2023-04-02T13:57:45;100531.50;;;17.64;59.81
51297;BME280;37380;45.186;9.792;2023-04-02T14:00:39;100495.41;;;17.71;59.67
51297;BME280;37380;45.186;9.792;2023-04-02T14:03:16;100539.56;;;18.04;59.68
51297;BME280;37380;45.186;9.792;2023-04-02T14:11:35;100502.56;;;17.98;60.03
51297;BME280;37380;45.186;9.792;2023-04-02T14:14:35;100531.59;;;17.78;59.61
51297;BME280;37380;45.186;9.792;2023-04-02T14:33:23;100535.16;;;18.11;61.39
51297;BME280;37380;45.186;9.792;2023-04-02T14:35:59;100506.91;;;17.82;62.61
51297;BME280;37380;45.186;9.792;2023-04-02T14:38:43;100529.88;;;18.68;58.49
51297;BME280;37380;45.186;9.792;2023-04-02T14:41:23;100528.13;;;18.53;58.53
51297;BME280;37380;45.186;9.792;2023-04-02T14:44:04;100423.22;;;17.69;59.30
51297;BME280;37380;45.186;9.792;2023-04-02T14:46:35;100510.50;;;18.37;59.85
51297;BME280;37380;45.186;9.792;2023-04-02T14:49:23;100510.47;;;18.64;61.50
51297;BME280;37380;45.186;9.792;2023-04-02T14:52:05;100491.94;;;18.84;61.32
51297;BME280;37380;45.186;9.792;2023-04-02T14:54:53;100512.91;;;19.39;58.03
51297;BME280;37380;45.186;9.792;2023-04-02T14:57:51;100488.19;;;19.47;57.93
51297;BME280;37380;45.186;9.792;2023-04-02T15:03:20;100474.00;;;19.55;58.39
51297;BME280;37380;45.186;9.792;2023-04-02T15:05:57;100485.28;;;19.86;58.34
51297;BME280;37380;45.186;9.792;2023-04-02T15:08:53;100482.50;;;20.06;57.77
51297;BME280;37380;45.186;9.792;2023-04-02T15:11:37;100494.19;;;19.82;58.25
51297;BME280;37380;45.186;9.792;2023-04-02T15:14:34;100488.75;;;19.99;56.57
51297;BME280;37380;45.186;9.792;2023-04-02T15:17:05;100516.75;;;20.37;56.20
51297;BME280;37380;45.186;9.792;2023-04-02T15:19:35;100472.63;;;20.25;55.95
51297;BME280;37380;45.186;9.792;2023-04-02T15:25:36;100516.09;;;20.06;56.35
51297;BME280;37380;45.186;9.792;2023-04-02T15:28:22;100499.56;;;19.59;58.17
51297;BME280;37380;45.186;9.792;2023-04-02T15:30:54;100504.75;;;19.87;56.55
51297;BME280;37380;45.186;9.792;2023-04-02T15:33:39;100510.00;;;19.96;57.84
51297;BME280;37380;45.186;9.792;2023-04-02T15:44:27;100450.47;;;18.83;58.39
51297;BME280;37380;45.186;9.792;2023-04-02T15:47:06;100499.88;;;18.89;61.33
51297;BME280;37380;45.186;9.792;2023-04-02T15:49:51;100458.50;;;17.93;62.07
51297;BME280;37380;45.186;9.792;2023-04-02T15:52:26;100516.66;;;18.02;63.95
51297;BME280;37380;45.186;9.792;2023-04-02T15:55:21;100511.25;;;17.65;64.07
51297;BME280;37380;45.186;9.792;2023-04-02T16:11:10;100521.94;;;18.43;59.35
51297;BME280;37380;45.186;9.792;2023-04-02T16:13:39;100485.81;;;18.13;59.60
51297;BME280;37380;45.186;9.792;2023-04-02T16:16:33;100434.69;;;18.03;59.57
51297;BME280;37380;45.186;9.792;2023-04-02T16:22:09;100517.56;;;18.53;60.51
51297;BME280;37380;45.186;9.792;2023-04-02T16:24:39;100461.13;;;18.05;61.17
51297;BME280;37380;45.186;9.792;2023-04-02T16:41:14;100545.69;;;17.91;62.06
51297;BME280;37380;45.186;9.792;2023-04-02T16:43:52;100543.06;;;17.93;62.58
51297;BME280;37380;45.186;9.792;2023-04-02T16:49:24;100476.84;;;17.37;62.92
51297;BME280;37380;45.186;9.792;2023-04-02T16:52:05;100558.81;;;17.68;63.62
51297;BME280;37380;45.186;9.792;2023-04-02T16:58:24;100556.16;;;17.65;63.63
51297;BME280;37380;45.186;9.792;2023-04-02T17:01:06;100566.72;;;17.59;64.29
51297;BME280;37380;45.186;9.792;2023-04-02T17:03:49;100557.84;;;17.41;64.62
51297;BME280;37380;45.186;9.792;2023-04-02T17:06:43;100566.63;;;17.34;65.66
51297;BME280;37380;45.186;9.792;2023-04-02T17:09:17;100557.78;;;17.29;64.77
51297;BME280;37380;45.186;9.792;2023-04-02T17:11:51;100458.78;;;16.50;65.80
51297;BME280;37380;45.186;9.792;2023-04-02T17:14:23;100562.94;;;17.05;67.13
51297;BME280;37380;45.186;9.792;2023-04-02T17:16:59;100568.22;;;17.05;66.05